Princeton, Indiana
Current Conditions -  °F | °C
As of 12:55 AM on Monday 24 Nov 2014 (Local Time) from KAJG Reporting Station
Overcast Overcast  
Wind Chill: 59°   Ceiling: 1500
Heat Index: 59°   Visibility: 10mi
Dew Point: 54°   Wind: 16mph
Humidity: 82%   Direction: 210°SSW
Pressure: 29.26"   Gusts: NA
Location:  38.36°N, 87.56°W
Report Text: KAJG 240655Z AUTO 21014KT 10SM OVC015 15/12 A2926 RMK AO2 LTG DSNT W
Loading
Personal Weather Stations






























Interactive Weather Map New forecast layout! Learn more

10-Day Weather Forecast

Advertisements
Track Severe Weather on mobile